createdAt,value
2018-02-11T00:01:08.925Z,11.48
2018-02-11T00:06:12.393Z,11.07
2018-02-11T00:11:15.297Z,10.98
2018-02-11T00:16:19.019Z,10.18
2018-02-11T00:21:21.911Z,9.25
2018-02-11T00:26:24.715Z,8.32
2018-02-11T00:31:27.547Z,8.67
2018-02-11T00:36:30.399Z,8.98
2018-02-11T00:41:33.379Z,9.23
2018-02-11T00:46:36.774Z,8.97
2018-02-11T00:51:41.175Z,9.27
2018-02-11T00:56:48.019Z,8.90
2018-02-11T01:01:52.591Z,8.90
2018-02-11T01:06:56.318Z,9.30
2018-02-11T01:11:59.217Z,11.47
2018-02-11T01:17:02.019Z,9.40
2018-02-11T01:22:05.224Z,9.65
2018-02-11T01:27:08.133Z,8.93
2018-02-11T01:32:11.482Z,9.03
2018-02-11T01:37:14.382Z,9.77
2018-02-11T01:42:17.246Z,9.20
2018-02-11T01:47:20.904Z,8.93
2018-02-11T01:52:24.034Z,9.30
2018-02-11T01:57:27.812Z,9.10
2018-02-11T02:02:31.056Z,9.30
2018-02-11T02:07:33.934Z,9.95
2018-02-11T02:12:37.711Z,10.10
2018-02-11T02:17:40.510Z,10.13
2018-02-11T02:22:45.689Z,9.82
2018-02-11T02:27:48.811Z,9.93
2018-02-11T02:32:51.985Z,10.45
2018-02-11T02:37:54.890Z,9.70
2018-02-11T02:42:57.730Z,9.70
2018-02-11T02:48:00.525Z,10.50
2018-02-11T02:53:03.437Z,9.80
2018-02-11T02:58:06.202Z,9.70
2018-02-11T03:03:09.044Z,9.60
2018-02-11T03:08:12.647Z,9.40
2018-02-11T03:13:15.423Z,8.90
2018-02-11T03:18:18.236Z,8.15
2018-02-11T03:23:21.934Z,7.62
2018-02-11T03:28:24.772Z,7.47
2018-02-11T03:33:27.888Z,7.37
2018-02-11T03:38:31.684Z,7.60
2018-02-11T03:43:34.572Z,7.10
2018-02-11T03:48:37.353Z,7.70
2018-02-11T03:53:40.462Z,7.37
2018-02-11T03:58:43.265Z,7.20
2018-02-11T04:03:46.272Z,6.90
2018-02-11T04:08:49.213Z,6.45
2018-02-11T04:13:52.132Z,7.47
2018-02-11T04:18:55.874Z,7.78
2018-02-11T04:23:58.675Z,7.95
2018-02-11T04:29:01.818Z,7.50
2018-02-11T04:34:04.689Z,8.95
2018-02-11T04:39:07.601Z,8.98
2018-02-11T04:44:10.395Z,8.53
2018-02-11T04:49:13.193Z,8.13
2018-02-11T04:54:15.978Z,7.80
2018-02-11T04:59:18.900Z,7.90
2018-02-11T05:04:21.681Z,7.60
2018-02-11T05:09:24.476Z,7.03
2018-02-11T05:14:27.628Z,6.60
2018-02-11T05:19:30.500Z,7.00
2018-02-11T05:24:33.342Z,6.53
2018-02-11T05:29:37.034Z,6.25
2018-02-11T05:34:39.859Z,5.75
2018-02-11T05:39:43.715Z,5.20
2018-02-11T05:44:46.890Z,5.40
2018-02-11T05:49:49.751Z,5.93
2018-02-11T05:54:52.694Z,6.35
2018-02-11T05:59:56.507Z,6.95
2018-02-11T06:05:00.743Z,7.10
2018-02-11T06:10:04.433Z,7.60
2018-02-11T06:15:08.343Z,8.18
2018-02-11T06:20:11.179Z,7.68
2018-02-11T06:25:14.779Z,7.43
2018-02-11T06:30:17.559Z,7.20
2018-02-11T06:35:20.444Z,8.40
2018-02-11T06:40:23.273Z,7.72
2018-02-11T06:45:26.735Z,8.15
2018-02-11T06:50:30.360Z,8.55
2018-02-11T06:55:34.848Z,8.63
2018-02-11T07:00:37.711Z,8.60
2018-02-11T07:05:44.109Z,9.50
2018-02-11T07:10:49.113Z,9.53
2018-02-11T07:15:51.948Z,9.90
2018-02-11T07:20:56.347Z,10.40
2018-02-11T07:26:00.476Z,10.15
2018-02-11T07:31:03.472Z,10.48
2018-02-11T07:36:06.784Z,10.27
2018-02-11T07:41:11.089Z,10.57
2018-02-11T07:46:16.320Z,9.83
2018-02-11T07:51:19.166Z,11.17
2018-02-11T07:56:22.005Z,10.10
2018-02-11T08:01:26.953Z,10.60
2018-02-11T08:06:31.489Z,9.77
2018-02-11T08:11:35.999Z,9.40
2018-02-11T08:16:39.987Z,8.85
2018-02-11T08:21:46.822Z,8.90
2018-02-11T08:26:51.182Z,10.50
2018-02-11T08:31:55.141Z,10.07
2018-02-11T08:36:57.946Z,9.57
2018-02-11T08:42:02.629Z,9.68
2018-02-11T08:47:07.538Z,9.70
2018-02-11T08:52:10.464Z,9.40
2018-02-11T08:57:14.313Z,9.13
2018-02-11T09:02:18.076Z,8.80
2018-02-11T09:07:21.133Z,9.23
2018-02-11T09:12:24.787Z,8.73
2018-02-11T09:17:27.604Z,8.27
2018-02-11T09:22:32.562Z,9.25
2018-02-11T09:27:35.558Z,9.20
2018-02-11T09:32:39.412Z,9.20
2018-02-11T09:37:44.198Z,8.13
2018-02-11T09:42:47.852Z,8.07
2018-02-11T14:32:03.290Z,3.50
2018-02-11T14:37:06.239Z,3.23
2018-02-11T14:42:09.191Z,3.70
2018-02-11T14:47:12.117Z,3.30
2018-02-11T14:52:15.824Z,3.67
2018-02-11T14:57:18.624Z,4.00
2018-02-11T15:02:21.571Z,3.97
2018-02-11T16:28:04.010Z,2.47
2018-02-11T16:33:07.031Z,2.40
2018-02-11T16:38:10.245Z,2.12
2018-02-11T16:43:13.092Z,2.90
2018-02-11T16:48:16.060Z,2.50
2018-02-11T16:53:19.197Z,4.40
2018-02-11T16:58:22.518Z,3.67
2018-02-11T17:03:25.376Z,3.83
2018-02-11T17:08:29.165Z,2.83
2018-02-11T17:13:32.583Z,3.50
2018-02-11T17:18:35.389Z,3.40
2018-02-11T17:23:39.368Z,2.80
